sensor_id;sensor_type;location;lat;lon;timestamp;P1;durP1;ratioP1;P2;durP2;ratioP2
44774;SDS011;31340;51.402;0.016;2023-05-14T00:02:03;34.17;;;22.63;;
44774;SDS011;31340;51.402;0.016;2023-05-14T00:04:31;33.70;;;21.38;;
44774;SDS011;31340;51.402;0.016;2023-05-14T00:06:59;33.28;;;22.33;;
44774;SDS011;31340;51.402;0.016;2023-05-14T00:09:28;32.33;;;22.05;;
44774;SDS011;31340;51.402;0.016;2023-05-14T00:11:56;35.72;;;23.17;;
44774;SDS011;31340;51.402;0.016;2023-05-14T00:14:24;35.45;;;22.70;;
44774;SDS011;31340;51.402;0.016;2023-05-14T00:16:52;34.00;;;22.08;;
44774;SDS011;31340;51.402;0.016;2023-05-14T00:19:20;34.83;;;22.67;;
44774;SDS011;31340;51.402;0.016;2023-05-14T00:21:47;38.40;;;24.33;;
44774;SDS011;31340;51.402;0.016;2023-05-14T00:24:15;34.55;;;22.80;;
44774;SDS011;31340;51.402;0.016;2023-05-14T00:26:43;31.92;;;22.17;;
44774;SDS011;31340;51.402;0.016;2023-05-14T00:29:11;31.15;;;21.52;;
44774;SDS011;31340;51.402;0.016;2023-05-14T00:31:38;32.67;;;22.05;;
44774;SDS011;31340;51.402;0.016;2023-05-14T00:34:06;31.73;;;22.75;;
44774;SDS011;31340;51.402;0.016;2023-05-14T00:36:34;35.03;;;23.23;;
44774;SDS011;31340;51.402;0.016;2023-05-14T00:39:02;37.88;;;25.15;;
44774;SDS011;31340;51.402;0.016;2023-05-14T00:41:29;38.10;;;24.30;;
44774;SDS011;31340;51.402;0.016;2023-05-14T00:43:57;43.58;;;24.15;;
44774;SDS011;31340;51.402;0.016;2023-05-14T00:46:25;31.20;;;21.75;;
44774;SDS011;31340;51.402;0.016;2023-05-14T00:48:53;33.97;;;23.25;;
44774;SDS011;31340;51.402;0.016;2023-05-14T00:51:21;33.92;;;22.17;;
44774;SDS011;31340;51.402;0.016;2023-05-14T00:53:49;36.72;;;24.13;;
44774;SDS011;31340;51.402;0.016;2023-05-14T00:56:18;39.00;;;23.90;;
44774;SDS011;31340;51.402;0.016;2023-05-14T00:58:46;35.08;;;22.38;;
44774;SDS011;31340;51.402;0.016;2023-05-14T01:01:14;36.97;;;23.50;;
44774;SDS011;31340;51.402;0.016;2023-05-14T01:03:43;41.75;;;26.70;;
44774;SDS011;31340;51.402;0.016;2023-05-14T01:06:14;35.92;;;23.17;;
44774;SDS011;31340;51.402;0.016;2023-05-14T01:11:34;38.03;;;24.63;;
44774;SDS011;31340;51.402;0.016;2023-05-14T01:14:23;42.40;;;23.73;;
44774;SDS011;31340;51.402;0.016;2023-05-14T01:17:01;34.75;;;23.58;;
44774;SDS011;31340;51.402;0.016;2023-05-14T01:22:12;39.28;;;22.40;;
44774;SDS011;31340;51.402;0.016;2023-05-14T01:24:40;35.03;;;23.35;;
44774;SDS011;31340;51.402;0.016;2023-05-14T01:27:16;35.28;;;22.08;;
44774;SDS011;31340;51.402;0.016;2023-05-14T01:29:52;34.25;;;22.15;;
44774;SDS011;31340;51.402;0.016;2023-05-14T01:32:39;35.10;;;21.52;;
44774;SDS011;31340;51.402;0.016;2023-05-14T01:35:11;33.47;;;22.42;;
44774;SDS011;31340;51.402;0.016;2023-05-14T01:37:40;35.00;;;23.70;;
44774;SDS011;31340;51.402;0.016;2023-05-14T01:40:11;35.53;;;23.90;;
44774;SDS011;31340;51.402;0.016;2023-05-14T01:42:40;31.45;;;21.42;;
44774;SDS011;31340;51.402;0.016;2023-05-14T01:45:08;32.53;;;22.85;;
44774;SDS011;31340;51.402;0.016;2023-05-14T01:47:36;32.75;;;22.10;;
44774;SDS011;31340;51.402;0.016;2023-05-14T01:50:04;31.67;;;22.23;;
44774;SDS011;31340;51.402;0.016;2023-05-14T01:52:33;34.80;;;22.08;;
44774;SDS011;31340;51.402;0.016;2023-05-14T01:55:01;32.50;;;21.40;;
44774;SDS011;31340;51.402;0.016;2023-05-14T01:57:28;36.40;;;23.13;;
44774;SDS011;31340;51.402;0.016;2023-05-14T01:59:56;37.40;;;23.85;;
44774;SDS011;31340;51.402;0.016;2023-05-14T02:02:23;37.15;;;23.00;;
44774;SDS011;31340;51.402;0.016;2023-05-14T02:04:51;34.00;;;22.80;;
44774;SDS011;31340;51.402;0.016;2023-05-14T02:07:19;36.78;;;23.13;;
44774;SDS011;31340;51.402;0.016;2023-05-14T02:09:47;34.67;;;23.77;;
44774;SDS011;31340;51.402;0.016;2023-05-14T02:12:14;30.20;;;21.58;;
44774;SDS011;31340;51.402;0.016;2023-05-14T02:14:42;32.83;;;21.38;;
44774;SDS011;31340;51.402;0.016;2023-05-14T02:17:10;34.15;;;23.52;;
44774;SDS011;31340;51.402;0.016;2023-05-14T02:19:37;35.53;;;23.23;;
44774;SDS011;31340;51.402;0.016;2023-05-14T02:22:05;35.60;;;24.77;;
44774;SDS011;31340;51.402;0.016;2023-05-14T02:24:33;33.78;;;22.85;;
44774;SDS011;31340;51.402;0.016;2023-05-14T02:27:00;36.47;;;24.45;;
44774;SDS011;31340;51.402;0.016;2023-05-14T02:29:28;38.85;;;24.52;;
44774;SDS011;31340;51.402;0.016;2023-05-14T02:31:56;35.95;;;22.85;;
44774;SDS011;31340;51.402;0.016;2023-05-14T02:34:24;37.53;;;24.48;;
44774;SDS011;31340;51.402;0.016;2023-05-14T02:36:51;39.00;;;24.58;;
44774;SDS011;31340;51.402;0.016;2023-05-14T02:39:20;40.65;;;26.10;;
44774;SDS011;31340;51.402;0.016;2023-05-14T02:41:48;39.85;;;26.65;;
44774;SDS011;31340;51.402;0.016;2023-05-14T02:44:16;37.42;;;24.27;;
44774;SDS011;31340;51.402;0.016;2023-05-14T02:46:44;39.92;;;24.85;;
44774;SDS011;31340;51.402;0.016;2023-05-14T02:49:12;43.40;;;26.25;;
44774;SDS011;31340;51.402;0.016;2023-05-14T02:51:40;35.67;;;24.05;;
44774;SDS011;31340;51.402;0.016;2023-05-14T02:54:07;42.15;;;26.17;;
44774;SDS011;31340;51.402;0.016;2023-05-14T02:56:35;38.38;;;25.85;;
44774;SDS011;31340;51.402;0.016;2023-05-14T02:59:03;42.45;;;24.73;;
44774;SDS011;31340;51.402;0.016;2023-05-14T03:01:31;37.53;;;24.20;;
44774;SDS011;31340;51.402;0.016;2023-05-14T03:03:59;36.88;;;23.95;;
44774;SDS011;31340;51.402;0.016;2023-05-14T03:06:27;36.22;;;22.88;;
44774;SDS011;31340;51.402;0.016;2023-05-14T03:08:54;36.80;;;24.85;;
44774;SDS011;31340;51.402;0.016;2023-05-14T03:11:22;35.35;;;22.90;;
44774;SDS011;31340;51.402;0.016;2023-05-14T03:13:49;41.05;;;26.00;;
44774;SDS011;31340;51.402;0.016;2023-05-14T03:16:17;37.15;;;24.60;;
44774;SDS011;31340;51.402;0.016;2023-05-14T03:18:45;41.38;;;23.23;;
44774;SDS011;31340;51.402;0.016;2023-05-14T03:21:12;41.90;;;25.65;;
44774;SDS011;31340;51.402;0.016;2023-05-14T03:23:40;37.05;;;23.10;;
44774;SDS011;31340;51.402;0.016;2023-05-14T03:26:08;40.45;;;24.20;;
44774;SDS011;31340;51.402;0.016;2023-05-14T03:28:36;38.92;;;23.67;;
44774;SDS011;31340;51.402;0.016;2023-05-14T03:31:03;44.15;;;26.00;;
44774;SDS011;31340;51.402;0.016;2023-05-14T03:33:31;43.38;;;25.33;;
44774;SDS011;31340;51.402;0.016;2023-05-14T03:35:59;40.95;;;25.98;;
44774;SDS011;31340;51.402;0.016;2023-05-14T03:38:27;39.22;;;25.50;;
44774;SDS011;31340;51.402;0.016;2023-05-14T03:40:54;45.58;;;25.98;;
44774;SDS011;31340;51.402;0.016;2023-05-14T03:43:22;45.50;;;26.17;;
44774;SDS011;31340;51.402;0.016;2023-05-14T03:45:50;44.67;;;26.35;;
44774;SDS011;31340;51.402;0.016;2023-05-14T03:48:19;41.10;;;25.42;;
44774;SDS011;31340;51.402;0.016;2023-05-14T03:50:46;38.53;;;23.80;;
44774;SDS011;31340;51.402;0.016;2023-05-14T03:53:15;43.55;;;26.13;;
44774;SDS011;31340;51.402;0.016;2023-05-14T03:55:45;39.72;;;25.45;;
44774;SDS011;31340;51.402;0.016;2023-05-14T03:58:13;46.45;;;24.55;;
44774;SDS011;31340;51.402;0.016;2023-05-14T04:00:41;42.65;;;24.98;;
44774;SDS011;31340;51.402;0.016;2023-05-14T04:03:10;49.50;;;27.48;;
44774;SDS011;31340;51.402;0.016;2023-05-14T04:05:38;39.08;;;25.17;;
44774;SDS011;31340;51.402;0.016;2023-05-14T04:08:06;41.95;;;26.75;;
44774;SDS011;31340;51.402;0.016;2023-05-14T04:10:33;44.30;;;28.55;;
44774;SDS011;31340;51.402;0.016;2023-05-14T04:13:01;48.72;;;28.70;;
44774;SDS011;31340;51.402;0.016;2023-05-14T04:15:31;46.35;;;26.60;;
44774;SDS011;31340;51.402;0.016;2023-05-14T04:17:59;41.90;;;25.08;;
44774;SDS011;31340;51.402;0.016;2023-05-14T04:20:27;43.75;;;26.38;;
44774;SDS011;31340;51.402;0.016;2023-05-14T04:22:55;42.35;;;26.45;;
44774;SDS011;31340;51.402;0.016;2023-05-14T04:25:22;45.35;;;27.73;;
44774;SDS011;31340;51.402;0.016;2023-05-14T04:27:50;44.42;;;26.63;;
44774;SDS011;31340;51.402;0.016;2023-05-14T04:30:18;47.50;;;27.88;;
44774;SDS011;31340;51.402;0.016;2023-05-14T04:32:46;47.85;;;28.42;;
44774;SDS011;31340;51.402;0.016;2023-05-14T04:35:14;48.63;;;30.42;;
44774;SDS011;31340;51.402;0.016;2023-05-14T04:37:41;52.58;;;29.27;;
44774;SDS011;31340;51.402;0.016;2023-05-14T04:40:09;47.60;;;28.08;;
44774;SDS011;31340;51.402;0.016;2023-05-14T04:42:37;54.53;;;28.40;;
44774;SDS011;31340;51.402;0.016;2023-05-14T04:45:05;45.13;;;28.10;;
44774;SDS011;31340;51.402;0.016;2023-05-14T04:47:33;58.72;;;30.75;;
44774;SDS011;31340;51.402;0.016;2023-05-14T04:50:01;49.17;;;29.02;;
44774;SDS011;31340;51.402;0.016;2023-05-14T04:52:29;53.28;;;30.60;;
44774;SDS011;31340;51.402;0.016;2023-05-14T04:54:56;48.38;;;29.55;;
44774;SDS011;31340;51.402;0.016;2023-05-14T04:57:24;48.03;;;27.75;;
44774;SDS011;31340;51.402;0.016;2023-05-14T04:59:52;45.00;;;27.75;;
44774;SDS011;31340;51.402;0.016;2023-05-14T05:02:20;52.15;;;30.38;;
44774;SDS011;31340;51.402;0.016;2023-05-14T05:04:48;47.33;;;27.88;;
44774;SDS011;31340;51.402;0.016;2023-05-14T05:07:16;51.00;;;29.17;;
44774;SDS011;31340;51.402;0.016;2023-05-14T05:09:43;44.13;;;27.75;;
44774;SDS011;31340;51.402;0.016;2023-05-14T05:12:11;55.38;;;29.00;;
44774;SDS011;31340;51.402;0.016;2023-05-14T05:14:38;49.45;;;29.20;;
44774;SDS011;31340;51.402;0.016;2023-05-14T05:17:06;47.63;;;30.20;;
44774;SDS011;31340;51.402;0.016;2023-05-14T05:19:34;48.03;;;28.38;;
44774;SDS011;31340;51.402;0.016;2023-05-14T05:22:10;44.47;;;27.92;;
44774;SDS011;31340;51.402;0.016;2023-05-14T05:24:38;51.10;;;29.45;;
44774;SDS011;31340;51.402;0.016;2023-05-14T05:27:06;44.63;;;28.10;;
44774;SDS011;31340;51.402;0.016;2023-05-14T05:29:34;55.47;;;30.92;;
44774;SDS011;31340;51.402;0.016;2023-05-14T05:32:02;53.38;;;29.80;;
44774;SDS011;31340;51.402;0.016;2023-05-14T05:34:30;49.63;;;28.08;;
44774;SDS011;31340;51.402;0.016;2023-05-14T05:36:58;48.75;;;29.42;;
44774;SDS011;31340;51.402;0.016;2023-05-14T05:39:26;47.60;;;28.38;;
44774;SDS011;31340;51.402;0.016;2023-05-14T05:41:54;51.25;;;29.92;;
44774;SDS011;31340;51.402;0.016;2023-05-14T05:44:22;50.28;;;27.10;;
44774;SDS011;31340;51.402;0.016;2023-05-14T05:46:49;46.95;;;27.40;;
44774;SDS011;31340;51.402;0.016;2023-05-14T05:49:17;42.50;;;27.38;;
44774;SDS011;31340;51.402;0.016;2023-05-14T05:51:44;49.25;;;29.23;;
44774;SDS011;31340;51.402;0.016;2023-05-14T05:54:12;58.47;;;30.92;;
44774;SDS011;31340;51.402;0.016;2023-05-14T05:56:40;43.45;;;27.17;;
44774;SDS011;31340;51.402;0.016;2023-05-14T05:59:07;44.05;;;25.90;;
44774;SDS011;31340;51.402;0.016;2023-05-14T06:01:35;48.67;;;28.85;;
44774;SDS011;31340;51.402;0.016;2023-05-14T06:04:04;47.28;;;28.67;;
44774;SDS011;31340;51.402;0.016;2023-05-14T06:06:32;53.20;;;30.63;;
44774;SDS011;31340;51.402;0.016;2023-05-14T06:08:59;48.00;;;26.25;;
44774;SDS011;31340;51.402;0.016;2023-05-14T06:11:28;48.03;;;29.13;;
44774;SDS011;31340;51.402;0.016;2023-05-14T06:13:55;49.85;;;28.15;;
44774;SDS011;31340;51.402;0.016;2023-05-14T06:16:23;52.20;;;30.52;;
44774;SDS011;31340;51.402;0.016;2023-05-14T06:18:50;53.17;;;30.02;;
44774;SDS011;31340;51.402;0.016;2023-05-14T06:21:19;48.10;;;27.88;;
44774;SDS011;31340;51.402;0.016;2023-05-14T06:23:46;49.92;;;27.52;;
44774;SDS011;31340;51.402;0.016;2023-05-14T06:26:14;58.00;;;30.95;;
44774;SDS011;31340;51.402;0.016;2023-05-14T06:28:41;51.55;;;30.00;;
44774;SDS011;31340;51.402;0.016;2023-05-14T06:31:09;55.13;;;31.15;;
44774;SDS011;31340;51.402;0.016;2023-05-14T06:33:37;59.75;;;32.63;;
44774;SDS011;31340;51.402;0.016;2023-05-14T06:36:05;50.97;;;29.52;;
44774;SDS011;31340;51.402;0.016;2023-05-14T06:38:33;47.83;;;27.50;;
44774;SDS011;31340;51.402;0.016;2023-05-14T06:41:01;50.13;;;28.73;;
44774;SDS011;31340;51.402;0.016;2023-05-14T06:43:29;50.60;;;29.48;;
44774;SDS011;31340;51.402;0.016;2023-05-14T06:45:56;52.25;;;29.63;;
44774;SDS011;31340;51.402;0.016;2023-05-14T06:48:24;58.13;;;32.60;;
44774;SDS011;31340;51.402;0.016;2023-05-14T06:50:54;48.25;;;28.25;;
44774;SDS011;31340;51.402;0.016;2023-05-14T06:53:21;53.30;;;31.58;;
44774;SDS011;31340;51.402;0.016;2023-05-14T06:55:49;54.92;;;30.77;;
44774;SDS011;31340;51.402;0.016;2023-05-14T06:58:17;47.80;;;29.58;;
44774;SDS011;31340;51.402;0.016;2023-05-14T07:00:44;55.05;;;30.25;;
44774;SDS011;31340;51.402;0.016;2023-05-14T07:03:11;51.90;;;31.33;;
44774;SDS011;31340;51.402;0.016;2023-05-14T07:05:39;50.88;;;31.13;;
44774;SDS011;31340;51.402;0.016;2023-05-14T07:08:07;52.05;;;29.55;;
44774;SDS011;31340;51.402;0.016;2023-05-14T07:10:34;49.85;;;29.38;;
44774;SDS011;31340;51.402;0.016;2023-05-14T07:13:02;52.63;;;30.98;;
44774;SDS011;31340;51.402;0.016;2023-05-14T07:15:29;52.40;;;30.40;;
44774;SDS011;31340;51.402;0.016;2023-05-14T07:17:57;53.47;;;30.17;;
44774;SDS011;31340;51.402;0.016;2023-05-14T07:20:25;49.22;;;29.60;;
44774;SDS011;31340;51.402;0.016;2023-05-14T07:22:53;56.95;;;31.35;;
44774;SDS011;31340;51.402;0.016;2023-05-14T07:25:21;51.47;;;28.73;;
44774;SDS011;31340;51.402;0.016;2023-05-14T07:27:48;42.60;;;26.23;;
44774;SDS011;31340;51.402;0.016;2023-05-14T07:30:16;49.20;;;29.63;;
44774;SDS011;31340;51.402;0.016;2023-05-14T07:32:43;46.35;;;27.40;;
44774;SDS011;31340;51.402;0.016;2023-05-14T07:35:11;48.67;;;27.88;;
44774;SDS011;31340;51.402;0.016;2023-05-14T07:37:39;42.70;;;27.67;;
44774;SDS011;31340;51.402;0.016;2023-05-14T07:40:07;46.95;;;28.75;;
44774;SDS011;31340;51.402;0.016;2023-05-14T07:42:35;47.22;;;27.58;;
44774;SDS011;31340;51.402;0.016;2023-05-14T07:45:03;48.00;;;28.23;;
44774;SDS011;31340;51.402;0.016;2023-05-14T07:47:32;48.20;;;29.45;;
44774;SDS011;31340;51.402;0.016;2023-05-14T07:50:01;48.55;;;30.65;;
44774;SDS011;31340;51.402;0.016;2023-05-14T07:52:31;51.72;;;29.90;;
44774;SDS011;31340;51.402;0.016;2023-05-14T07:54:59;49.45;;;29.30;;
44774;SDS011;31340;51.402;0.016;2023-05-14T07:57:27;40.55;;;25.52;;
44774;SDS011;31340;51.402;0.016;2023-05-14T07:59:55;42.92;;;26.30;;
44774;SDS011;31340;51.402;0.016;2023-05-14T08:02:22;49.10;;;29.10;;
44774;SDS011;31340;51.402;0.016;2023-05-14T08:04:50;56.17;;;31.23;;
44774;SDS011;31340;51.402;0.016;2023-05-14T08:07:18;47.85;;;29.00;;
44774;SDS011;31340;51.402;0.016;2023-05-14T08:09:45;51.92;;;29.67;;
44774;SDS011;31340;51.402;0.016;2023-05-14T08:12:13;49.22;;;28.45;;
44774;SDS011;31340;51.402;0.016;2023-05-14T08:14:40;49.38;;;29.95;;
44774;SDS011;31340;51.402;0.016;2023-05-14T08:17:08;48.28;;;29.02;;
44774;SDS011;31340;51.402;0.016;2023-05-14T08:19:36;48.67;;;28.88;;
44774;SDS011;31340;51.402;0.016;2023-05-14T08:22:03;60.58;;;31.83;;
44774;SDS011;31340;51.402;0.016;2023-05-14T08:24:31;47.65;;;26.90;;
44774;SDS011;31340;51.402;0.016;2023-05-14T08:26:59;47.50;;;27.73;;
44774;SDS011;31340;51.402;0.016;2023-05-14T08:29:26;46.22;;;27.33;;
44774;SDS011;31340;51.402;0.016;2023-05-14T08:31:54;37.70;;;24.42;;
44774;SDS011;31340;51.402;0.016;2023-05-14T08:34:21;38.63;;;22.70;;
44774;SDS011;31340;51.402;0.016;2023-05-14T08:36:49;44.35;;;25.40;;
44774;SDS011;31340;51.402;0.016;2023-05-14T08:39:16;41.78;;;24.98;;
44774;SDS011;31340;51.402;0.016;2023-05-14T08:41:44;39.30;;;24.63;;
44774;SDS011;31340;51.402;0.016;2023-05-14T08:44:13;38.38;;;24.83;;
44774;SDS011;31340;51.402;0.016;2023-05-14T08:46:44;15.30;;;10.52;;
44774;SDS011;31340;51.402;0.016;2023-05-14T08:52:08;42.03;;;26.25;;
44774;SDS011;31340;51.402;0.016;2023-05-14T08:54:37;31.48;;;21.42;;
44774;SDS011;31340;51.402;0.016;2023-05-14T08:57:08;39.80;;;22.88;;
44774;SDS011;31340;51.402;0.016;2023-05-14T08:59:36;37.17;;;24.77;;
44774;SDS011;31340;51.402;0.016;2023-05-14T09:02:04;34.25;;;22.42;;
44774;SDS011;31340;51.402;0.016;2023-05-14T09:04:34;36.63;;;23.25;;
44774;SDS011;31340;51.402;0.016;2023-05-14T09:07:03;31.55;;;22.60;;
44774;SDS011;31340;51.402;0.016;2023-05-14T09:09:33;33.00;;;21.80;;
44774;SDS011;31340;51.402;0.016;2023-05-14T09:12:01;39.83;;;23.23;;
44774;SDS011;31340;51.402;0.016;2023-05-14T09:14:31;35.55;;;22.50;;
44774;SDS011;31340;51.402;0.016;2023-05-14T09:16:59;35.58;;;22.08;;
44774;SDS011;31340;51.402;0.016;2023-05-14T09:19:27;37.83;;;24.73;;
44774;SDS011;31340;51.402;0.016;2023-05-14T09:21:55;31.67;;;20.13;;
44774;SDS011;31340;51.402;0.016;2023-05-14T09:24:26;35.58;;;22.13;;
44774;SDS011;31340;51.402;0.016;2023-05-14T09:26:56;31.50;;;22.40;;
44774;SDS011;31340;51.402;0.016;2023-05-14T09:29:24;37.15;;;22.52;;
44774;SDS011;31340;51.402;0.016;2023-05-14T09:31:53;37.85;;;22.73;;
44774;SDS011;31340;51.402;0.016;2023-05-14T09:34:22;34.35;;;21.63;;
44774;SDS011;31340;51.402;0.016;2023-05-14T09:37:02;34.30;;;23.70;;
44774;SDS011;31340;51.402;0.016;2023-05-14T09:39:31;31.80;;;21.45;;
44774;SDS011;31340;51.402;0.016;2023-05-14T09:42:00;35.13;;;22.15;;
44774;SDS011;31340;51.402;0.016;2023-05-14T09:44:28;37.42;;;24.13;;
44774;SDS011;31340;51.402;0.016;2023-05-14T09:46:55;36.53;;;23.10;;
44774;SDS011;31340;51.402;0.016;2023-05-14T09:49:23;35.15;;;22.25;;
44774;SDS011;31340;51.402;0.016;2023-05-14T09:51:51;29.35;;;21.05;;
44774;SDS011;31340;51.402;0.016;2023-05-14T09:54:18;33.97;;;22.98;;
44774;SDS011;31340;51.402;0.016;2023-05-14T09:56:46;38.20;;;22.80;;
44774;SDS011;31340;51.402;0.016;2023-05-14T09:59:14;34.22;;;22.20;;
44774;SDS011;31340;51.402;0.016;2023-05-14T10:01:42;34.00;;;23.02;;
44774;SDS011;31340;51.402;0.016;2023-05-14T10:04:10;38.00;;;21.48;;
44774;SDS011;31340;51.402;0.016;2023-05-14T10:06:39;32.20;;;20.20;;
44774;SDS011;31340;51.402;0.016;2023-05-14T10:09:11;34.25;;;20.65;;
44774;SDS011;31340;51.402;0.016;2023-05-14T10:11:42;33.25;;;22.33;;
44774;SDS011;31340;51.402;0.016;2023-05-14T10:17:01;30.15;;;21.10;;
44774;SDS011;31340;51.402;0.016;2023-05-14T10:19:35;35.83;;;19.85;;
44774;SDS011;31340;51.402;0.016;2023-05-14T10:22:04;28.00;;;18.75;;
44774;SDS011;31340;51.402;0.016;2023-05-14T10:24:35;27.88;;;19.55;;
44774;SDS011;31340;51.402;0.016;2023-05-14T10:27:05;30.27;;;19.60;;
44774;SDS011;31340;51.402;0.016;2023-05-14T10:29:33;28.98;;;18.98;;
44774;SDS011;31340;51.402;0.016;2023-05-14T10:32:06;25.05;;;18.17;;
44774;SDS011;31340;51.402;0.016;2023-05-14T10:34:39;26.10;;;19.65;;
44774;SDS011;31340;51.402;0.016;2023-05-14T10:37:20;26.08;;;17.13;;
44774;SDS011;31340;51.402;0.016;2023-05-14T10:39:50;25.17;;;18.13;;
44774;SDS011;31340;51.402;0.016;2023-05-14T10:47:27;27.20;;;18.65;;
44774;SDS011;31340;51.402;0.016;2023-05-14T10:49:59;27.77;;;18.30;;
44774;SDS011;31340;51.402;0.016;2023-05-14T10:52:29;27.30;;;18.17;;
44774;SDS011;31340;51.402;0.016;2023-05-14T10:54:59;25.33;;;18.10;;
44774;SDS011;31340;51.402;0.016;2023-05-14T10:57:30;23.27;;;17.55;;
44774;SDS011;31340;51.402;0.016;2023-05-14T10:59:59;23.85;;;18.08;;
44774;SDS011;31340;51.402;0.016;2023-05-14T11:02:32;24.80;;;17.52;;
44774;SDS011;31340;51.402;0.016;2023-05-14T11:05:07;24.80;;;17.20;;
44774;SDS011;31340;51.402;0.016;2023-05-14T11:07:38;21.98;;;17.13;;
44774;SDS011;31340;51.402;0.016;2023-05-14T11:10:08;25.85;;;17.52;;
44774;SDS011;31340;51.402;0.016;2023-05-14T11:12:38;27.20;;;17.95;;
44774;SDS011;31340;51.402;0.016;2023-05-14T11:15:07;23.08;;;17.75;;
44774;SDS011;31340;51.402;0.016;2023-05-14T11:17:38;26.98;;;18.38;;
44774;SDS011;31340;51.402;0.016;2023-05-14T11:20:07;25.65;;;19.05;;
44774;SDS011;31340;51.402;0.016;2023-05-14T11:22:37;24.27;;;18.17;;
44774;SDS011;31340;51.402;0.016;2023-05-14T11:25:06;28.95;;;18.10;;
44774;SDS011;31340;51.402;0.016;2023-05-14T11:27:36;23.52;;;17.67;;
44774;SDS011;31340;51.402;0.016;2023-05-14T11:30:10;27.13;;;19.38;;
44774;SDS011;31340;51.402;0.016;2023-05-14T11:32:38;21.25;;;17.20;;
44774;SDS011;31340;51.402;0.016;2023-05-14T11:35:06;26.13;;;17.83;;
44774;SDS011;31340;51.402;0.016;2023-05-14T11:37:34;22.75;;;16.42;;
44774;SDS011;31340;51.402;0.016;2023-05-14T11:40:05;22.50;;;16.42;;
44774;SDS011;31340;51.402;0.016;2023-05-14T11:42:36;26.30;;;18.05;;
44774;SDS011;31340;51.402;0.016;2023-05-14T11:45:04;21.95;;;17.15;;
44774;SDS011;31340;51.402;0.016;2023-05-14T11:47:32;23.02;;;18.25;;
44774;SDS011;31340;51.402;0.016;2023-05-14T11:50:00;21.38;;;17.05;;
44774;SDS011;31340;51.402;0.016;2023-05-14T11:52:28;22.52;;;16.40;;
44774;SDS011;31340;51.402;0.016;2023-05-14T11:54:56;23.10;;;16.80;;
44774;SDS011;31340;51.402;0.016;2023-05-14T11:57:23;23.48;;;17.58;;
44774;SDS011;31340;51.402;0.016;2023-05-14T11:59:55;19.65;;;15.77;;
44774;SDS011;31340;51.402;0.016;2023-05-14T12:02:25;19.60;;;15.82;;
44774;SDS011;31340;51.402;0.016;2023-05-14T12:04:55;18.20;;;14.80;;
44774;SDS011;31340;51.402;0.016;2023-05-14T12:07:27;20.35;;;15.90;;
44774;SDS011;31340;51.402;0.016;2023-05-14T12:09:59;17.25;;;14.55;;
44774;SDS011;31340;51.402;0.016;2023-05-14T12:12:32;17.08;;;14.32;;
44774;SDS011;31340;51.402;0.016;2023-05-14T12:15:09;18.23;;;13.57;;
44774;SDS011;31340;51.402;0.016;2023-05-14T12:17:40;16.83;;;12.57;;
44774;SDS011;31340;51.402;0.016;2023-05-14T12:20:08;17.95;;;11.88;;
44774;SDS011;31340;51.402;0.016;2023-05-14T12:22:37;15.07;;;12.35;;
44774;SDS011;31340;51.402;0.016;2023-05-14T12:25:11;16.13;;;11.52;;
44774;SDS011;31340;51.402;0.016;2023-05-14T12:27:40;15.20;;;11.52;;
44774;SDS011;31340;51.402;0.016;2023-05-14T12:30:11;14.15;;;11.05;;
44774;SDS011;31340;51.402;0.016;2023-05-14T12:32:59;16.95;;;12.85;;
44774;SDS011;31340;51.402;0.016;2023-05-14T12:35:26;13.32;;;11.05;;
44774;SDS011;31340;51.402;0.016;2023-05-14T12:37:54;16.00;;;11.18;;
44774;SDS011;31340;51.402;0.016;2023-05-14T12:40:21;14.32;;;11.23;;
44774;SDS011;31340;51.402;0.016;2023-05-14T12:42:49;15.05;;;12.35;;
44774;SDS011;31340;51.402;0.016;2023-05-14T12:45:17;16.52;;;13.52;;
44774;SDS011;31340;51.402;0.016;2023-05-14T12:47:45;16.10;;;12.60;;
44774;SDS011;31340;51.402;0.016;2023-05-14T12:50:13;13.10;;;11.43;;
44774;SDS011;31340;51.402;0.016;2023-05-14T12:52:41;16.08;;;11.50;;
44774;SDS011;31340;51.402;0.016;2023-05-14T12:55:09;14.55;;;11.45;;
44774;SDS011;31340;51.402;0.016;2023-05-14T12:57:37;12.25;;;10.50;;
44774;SDS011;31340;51.402;0.016;2023-05-14T13:00:06;12.73;;;10.10;;
44774;SDS011;31340;51.402;0.016;2023-05-14T13:02:39;11.07;;;9.27;;
44774;SDS011;31340;51.402;0.016;2023-05-14T13:05:12;9.50;;;8.38;;
44774;SDS011;31340;51.402;0.016;2023-05-14T13:07:40;12.82;;;7.93;;
44774;SDS011;31340;51.402;0.016;2023-05-14T13:10:08;12.00;;;7.95;;
44774;SDS011;31340;51.402;0.016;2023-05-14T13:12:37;13.68;;;8.30;;
44774;SDS011;31340;51.402;0.016;2023-05-14T13:15:05;9.18;;;6.80;;
44774;SDS011;31340;51.402;0.016;2023-05-14T13:17:33;9.90;;;7.63;;
44774;SDS011;31340;51.402;0.016;2023-05-14T13:20:01;12.73;;;10.48;;
44774;SDS011;31340;51.402;0.016;2023-05-14T13:22:30;14.73;;;12.05;;
44774;SDS011;31340;51.402;0.016;2023-05-14T13:24:58;12.73;;;11.20;;
44774;SDS011;31340;51.402;0.016;2023-05-14T13:27:26;12.65;;;10.68;;
44774;SDS011;31340;51.402;0.016;2023-05-14T13:29:53;11.40;;;10.20;;
44774;SDS011;31340;51.402;0.016;2023-05-14T13:32:21;13.25;;;9.75;;
44774;SDS011;31340;51.402;0.016;2023-05-14T13:34:49;13.45;;;10.23;;
44774;SDS011;31340;51.402;0.016;2023-05-14T13:37:17;13.02;;;8.07;;
44774;SDS011;31340;51.402;0.016;2023-05-14T13:39:44;11.45;;;10.05;;
44774;SDS011;31340;51.402;0.016;2023-05-14T13:42:12;10.40;;;8.93;;
44774;SDS011;31340;51.402;0.016;2023-05-14T13:44:40;10.85;;;8.25;;
44774;SDS011;31340;51.402;0.016;2023-05-14T13:47:07;8.68;;;7.80;;
44774;SDS011;31340;51.402;0.016;2023-05-14T13:49:35;12.65;;;8.05;;
44774;SDS011;31340;51.402;0.016;2023-05-14T13:52:03;10.65;;;8.15;;
44774;SDS011;31340;51.402;0.016;2023-05-14T13:54:31;9.15;;;7.53;;
44774;SDS011;31340;51.402;0.016;2023-05-14T13:56:59;9.38;;;7.47;;
44774;SDS011;31340;51.402;0.016;2023-05-14T13:59:26;8.75;;;7.10;;
44774;SDS011;31340;51.402;0.016;2023-05-14T14:01:54;7.15;;;6.20;;
44774;SDS011;31340;51.402;0.016;2023-05-14T14:04:22;9.25;;;6.70;;
44774;SDS011;31340;51.402;0.016;2023-05-14T14:06:55;8.65;;;6.95;;
44774;SDS011;31340;51.402;0.016;2023-05-14T14:09:23;9.40;;;7.00;;
44774;SDS011;31340;51.402;0.016;2023-05-14T14:11:50;10.10;;;6.88;;
44774;SDS011;31340;51.402;0.016;2023-05-14T14:14:18;8.98;;;7.60;;
44774;SDS011;31340;51.402;0.016;2023-05-14T14:16:45;10.40;;;7.00;;
44774;SDS011;31340;51.402;0.016;2023-05-14T14:19:13;8.77;;;6.28;;
44774;SDS011;31340;51.402;0.016;2023-05-14T14:21:44;12.60;;;8.80;;
44774;SDS011;31340;51.402;0.016;2023-05-14T14:24:12;10.20;;;8.43;;
44774;SDS011;31340;51.402;0.016;2023-05-14T14:26:40;9.05;;;6.72;;
44774;SDS011;31340;51.402;0.016;2023-05-14T14:29:07;9.30;;;7.15;;
44774;SDS011;31340;51.402;0.016;2023-05-14T14:31:35;11.18;;;7.30;;
44774;SDS011;31340;51.402;0.016;2023-05-14T14:34:03;10.82;;;8.20;;
44774;SDS011;31340;51.402;0.016;2023-05-14T14:36:30;10.57;;;8.27;;
44774;SDS011;31340;51.402;0.016;2023-05-14T14:38:58;11.60;;;9.10;;
44774;SDS011;31340;51.402;0.016;2023-05-14T14:41:25;12.73;;;8.27;;
44774;SDS011;31340;51.402;0.016;2023-05-14T14:43:53;9.15;;;7.55;;
44774;SDS011;31340;51.402;0.016;2023-05-14T14:46:21;9.52;;;7.82;;
44774;SDS011;31340;51.402;0.016;2023-05-14T14:48:49;9.95;;;7.78;;